aviador You're here:

OIMM Decoded Metar

MASHHAD (AFB/CIV in IRAN
Report Time2017-09-23 21:30:00
UTC Time2017-09-23 21:41:49
Flight Rules vfr VFR
WindCalm
Visibility9999 m
Phenomena:N/A
Clouds:N/A
Expected CloudBase > 8,800 ft AGL from Temp-Dew spread
CeilingNone
Temp18°C (ISA +9)
Dew Point-4°C (22% RH)
AAT15.5°C
QNH1020 hPa
Density Alt4,140 ft
Elevation3,215 ft
Report Wrong Elevation
Raw Report
METAR OIMM 232130Z 00000KT CAVOK 18/M04 Q1020 A3013=

Extra information for OIMM:More info

Metar Taf Metar & Taf Last 4 Metars F.Rules Stats Wind Profile Meteogram Temp Stats Airport Information Weather charts Add Link Nearby VenuesMetar ALERT Operation Metar Decoded Social comments